createdAt,value
2022-12-23T00:02:38.625Z,99975.19
2022-12-23T00:05:41.409Z,99965.53
2022-12-23T00:08:44.110Z,99961.50
2022-12-23T00:12:05.644Z,99968.72
2022-12-23T00:15:09.227Z,99976.63
2022-12-23T00:18:11.841Z,99976.66
2022-12-23T00:21:16.358Z,99972.66
2022-12-23T00:24:19.121Z,99980.22
2022-12-23T00:27:21.344Z,99975.91
2022-12-23T00:30:24.374Z,99979.91
2022-12-23T00:33:32.370Z,99972.69
2022-12-23T00:36:35.063Z,99976.28
2022-12-23T00:39:59.875Z,99969.03
2022-12-23T00:43:05.180Z,99958.59
2022-12-23T00:46:07.505Z,99952.06
2022-12-23T00:49:34.113Z,99963.87
2022-12-23T00:52:36.771Z,99956.63
2022-12-23T00:55:39.247Z,99950.50
2022-12-23T00:58:41.545Z,99956.44
2022-12-23T01:02:03.046Z,99954.38
2022-12-23T01:05:23.749Z,99960.31
2022-12-23T01:08:26.628Z,99953.50
2022-12-23T01:11:28.811Z,99954.38
2022-12-23T01:14:31.469Z,99946.09
2022-12-23T01:17:33.956Z,99942.31
2022-12-23T01:20:40.395Z,99940.97
2022-12-23T01:23:42.622Z,99936.94
2022-12-23T01:26:45.355Z,99937.97
2022-12-23T01:29:47.497Z,99938.22
2022-12-23T01:32:50.073Z,99926.66
2022-12-23T01:35:52.269Z,99931.22
2022-12-23T01:38:56.915Z,99921.31
2022-12-23T01:42:18.773Z,99930.16
2022-12-23T01:45:28.994Z,99925.94
2022-12-23T01:48:31.195Z,99915.22
2022-12-23T01:51:33.849Z,99912.00
2022-12-23T01:54:37.087Z,99916.00
2022-12-23T01:57:42.548Z,99907.94
2022-12-23T02:01:03.932Z,99900.19
2022-12-23T02:04:11.059Z,99903.41
2022-12-23T02:07:32.628Z,99906.19
2022-12-23T02:11:10.227Z,99903.25
2022-12-23T02:14:47.871Z,99900.84
2022-12-23T02:17:53.050Z,99887.75
2022-12-23T02:21:24.296Z,99886.16
2022-12-23T02:25:04.669Z,99891.78
2022-12-23T02:28:15.722Z,99884.47
2022-12-23T02:31:30.600Z,99894.13
2022-12-23T02:34:35.643Z,99893.13
2022-12-23T02:37:57.943Z,99887.56
2022-12-23T02:41:16.306Z,99886.22
2022-12-23T02:44:32.603Z,99886.75
2022-12-23T02:47:43.487Z,99888.91
2022-12-23T02:50:46.615Z,99896.16
2022-12-23T02:53:57.460Z,99900.53
2022-12-23T02:57:03.613Z,99910.16
2022-12-23T03:00:26.221Z,99903.25
2022-12-23T03:03:29.479Z,99901.37
2022-12-23T03:06:39.395Z,99903.78
2022-12-23T03:10:20.534Z,99901.37
2022-12-23T03:13:41.257Z,99902.16
2022-12-23T03:17:21.598Z,99902.69
2022-12-23T03:20:42.416Z,99897.59
2022-12-23T03:23:55.281Z,99898.19
2022-12-23T03:27:06.632Z,99894.44
2022-12-23T03:30:14.132Z,99892.81
2022-12-23T03:33:44.807Z,99890.66
2022-12-23T03:36:55.790Z,99883.16
2022-12-23T03:40:09.346Z,99883.16
2022-12-23T03:43:20.569Z,99887.44
2022-12-23T03:46:36.585Z,99885.28
2022-12-23T03:49:45.610Z,99891.19
2022-12-23T03:53:00.516Z,99879.78
2022-12-23T03:56:08.039Z,99876.22
2022-12-23T03:59:27.088Z,99880.78
2022-12-23T04:02:57.683Z,99886.19
2022-12-23T04:06:04.519Z,99878.16
2022-12-23T04:09:07.886Z,99878.69
2022-12-23T04:12:10.765Z,99882.16
2022-12-23T04:15:15.361Z,99873.13
2022-12-23T04:18:18.101Z,99862.47
2022-12-23T04:21:20.419Z,99858.16
2022-12-23T04:24:23.757Z,99861.94
2022-12-23T04:27:26.073Z,99858.19
2022-12-23T04:30:33.921Z,99873.94
2022-12-23T04:33:37.021Z,99879.03
2022-12-23T04:36:39.730Z,99868.09
2022-12-23T04:39:42.017Z,99875.34
2022-12-23T04:42:44.570Z,99885.50
2022-12-23T04:45:50.720Z,99884.38
2022-12-23T04:48:53.485Z,99876.94
2022-12-23T04:51:55.798Z,99881.00
2022-12-23T04:54:58.665Z,99884.47
2022-12-23T04:58:01.099Z,99879.69
2022-12-23T05:01:08.220Z,99888.22
2022-12-23T05:04:10.608Z,99877.00
2022-12-23T05:07:13.314Z,99881.31
2022-12-23T05:10:15.757Z,99875.72
2022-12-23T05:13:18.412Z,99884.53
2022-12-23T05:16:20.975Z,99882.66
2022-12-23T05:19:23.775Z,99877.81
2022-12-23T05:22:26.226Z,99883.47
2022-12-23T05:25:28.965Z,99880.78
2022-12-23T05:28:31.816Z,99873.06
2022-12-23T05:31:34.642Z,99873.91
2022-12-23T05:34:39.211Z,99873.13
2022-12-23T05:37:41.828Z,99874.47
2022-12-23T05:40:44.093Z,99865.91
2022-12-23T05:43:46.771Z,99868.56
2022-12-23T05:46:49.134Z,99877.66
2022-12-23T05:49:51.848Z,99888.88
2022-12-23T05:52:56.013Z,99901.97
2022-12-23T05:55:58.511Z,99903.28
2022-12-23T05:59:00.768Z,99903.31
2022-12-23T06:02:03.533Z,99901.72
2022-12-23T06:05:06.981Z,99896.34
2022-12-23T06:08:09.466Z,99896.34
2022-12-23T06:11:12.928Z,99892.09
2022-12-23T06:14:15.297Z,99891.56
2022-12-23T06:17:18.251Z,99895.31
2022-12-23T06:20:21.182Z,99891.84
2022-12-23T06:23:24.070Z,99897.72
2022-12-23T06:26:26.559Z,99889.19
2022-12-23T06:29:29.733Z,99891.84
2022-12-23T06:32:37.959Z,99893.72
2022-12-23T06:35:41.288Z,99886.50
2022-12-23T06:38:44.597Z,99888.09
2022-12-23T06:41:47.156Z,99880.09
2022-12-23T06:44:49.452Z,99891.56
2022-12-23T06:47:52.320Z,99896.13
2022-12-23T06:50:54.617Z,99888.91
2022-12-23T06:53:59.541Z,99903.03
2022-12-23T06:57:01.838Z,99900.66
2022-12-23T07:00:06.438Z,99916.16
2022-12-23T07:03:08.949Z,99915.34
2022-12-23T07:06:11.786Z,99946.03
2022-12-23T07:09:14.020Z,99949.22
2022-12-23T07:12:16.730Z,99948.72
2022-12-23T07:15:19.138Z,99962.59
2022-12-23T07:18:23.180Z,99962.31
2022-12-23T07:21:29.598Z,99951.38
2022-12-23T07:24:32.845Z,99962.31
2022-12-23T07:27:35.512Z,99941.25
2022-12-23T07:30:38.527Z,99935.34
2022-12-23T07:33:40.821Z,99920.69
2022-12-23T07:36:43.409Z,99915.88
2022-12-23T07:39:45.614Z,99912.94
2022-12-23T07:42:49.888Z,99916.69
2022-12-23T07:45:59.271Z,99917.47
2022-12-23T07:49:02.893Z,99924.13
2022-12-23T07:52:05.218Z,99924.41
2022-12-23T07:55:08.632Z,99905.72
2022-12-23T07:58:11.018Z,99912.94
2022-12-23T08:01:13.970Z,99912.41
2022-12-23T08:04:17.557Z,99904.91
2022-12-23T08:07:20.208Z,99901.97
2022-12-23T08:10:22.869Z,99903.03
2022-12-23T08:13:25.623Z,99894.53
2022-12-23T08:16:28.237Z,99899.84
2022-12-23T08:19:30.532Z,99904.91
2022-12-23T08:22:33.420Z,99916.66
2022-12-23T08:25:35.825Z,99909.94
2022-12-23T08:28:40.501Z,99901.13
2022-12-23T08:31:42.861Z,99895.81
2022-12-23T08:34:45.545Z,99894.72
2022-12-23T08:37:47.954Z,99892.09
2022-12-23T08:40:51.051Z,99899.56
2022-12-23T08:43:53.699Z,99904.38
2022-12-23T08:46:57.031Z,99907.28
2022-12-23T08:49:59.383Z,99901.69
2022-12-23T08:53:02.506Z,99895.28
2022-12-23T08:56:11.125Z,99875.28
2022-12-23T08:59:19.242Z,99859.81
2022-12-23T09:02:22.199Z,99853.12
2022-12-23T09:05:25.713Z,99862.19
2022-12-23T09:08:27.964Z,99863.78
2022-12-23T09:11:31.030Z,99863.25
2022-12-23T09:14:33.651Z,99860.56
2022-12-23T09:17:36.536Z,99867.19
2022-12-23T09:20:39.156Z,99866.13
2022-12-23T09:23:42.219Z,99874.94
2022-12-23T09:26:44.710Z,99883.00
2022-12-23T09:29:47.378Z,99885.16
2022-12-23T09:32:50.062Z,99887.31
2022-12-23T09:35:52.772Z,99879.53
2022-12-23T09:38:55.929Z,99872.59
2022-12-23T09:42:28.308Z,99859.53
2022-12-23T09:46:16.952Z,99856.84
2022-12-23T09:49:22.314Z,99852.31
2022-12-23T09:53:05.236Z,99852.84
2022-12-23T09:56:24.338Z,99864.87
2022-12-23T09:59:54.266Z,99865.16
2022-12-23T10:03:00.841Z,99859.81
2022-12-23T10:06:22.010Z,99849.13
2022-12-23T10:09:24.624Z,99847.78
2022-12-23T10:12:49.229Z,99831.22
2022-12-23T10:15:53.189Z,99822.44
2022-12-23T10:18:58.757Z,99829.09
2022-12-23T10:22:10.245Z,99825.91
2022-12-23T10:25:20.501Z,99819.69
2022-12-23T10:28:23.289Z,99827.44
2022-12-23T10:31:54.331Z,99815.16
2022-12-23T10:35:17.716Z,99802.09
2022-12-23T10:38:37.548Z,99804.44
2022-12-23T10:41:55.606Z,99796.44
2022-12-23T10:45:16.792Z,99791.59
2022-12-23T10:48:22.248Z,99787.28
2022-12-23T10:51:49.103Z,99791.53
2022-12-23T10:54:51.596Z,99778.47
2022-12-23T10:57:59.860Z,99777.16
2022-12-23T11:01:15.009Z,99780.06
2022-12-23T11:04:32.688Z,99781.13
2022-12-23T11:07:44.778Z,99791.00
2022-12-23T11:10:49.006Z,99786.75
2022-12-23T11:13:51.166Z,99778.44
2022-12-23T11:16:53.777Z,99785.38
2022-12-23T11:20:17.666Z,99780.03
2022-12-23T11:23:26.647Z,99776.59
2022-12-23T11:26:28.956Z,99771.78
2022-12-23T11:29:38.822Z,99764.81
2022-12-23T11:32:42.733Z,99763.19
2022-12-23T11:35:45.851Z,99748.16
2022-12-23T11:38:54.352Z,99761.00
2022-12-23T11:42:17.941Z,99769.00
2022-12-23T11:45:30.438Z,99774.66
2022-12-23T11:48:33.788Z,99781.84
2022-12-23T11:51:36.311Z,99781.59
2022-12-23T11:54:39.699Z,99784.75
2022-12-23T11:57:46.256Z,99778.38
2022-12-23T12:00:56.137Z,99778.63
2022-12-23T12:04:03.302Z,99778.09
2022-12-23T12:07:06.845Z,99787.44
2022-12-23T12:10:18.250Z,99777.00
2022-12-23T12:13:32.331Z,99782.88
2022-12-23T12:16:50.116Z,99788.25
2022-12-23T12:20:11.288Z,99785.84
2022-12-23T12:23:21.135Z,99792.47
2022-12-23T12:26:30.071Z,99793.53
2022-12-23T12:29:55.217Z,99791.34
2022-12-23T12:33:07.077Z,99794.81
2022-12-23T12:36:22.850Z,99794.50
2022-12-23T12:39:38.031Z,99792.31
2022-12-23T12:42:52.393Z,99793.13
2022-12-23T12:46:28.538Z,99779.47
2022-12-23T12:49:41.859Z,99780.25
2022-12-23T12:52:44.610Z,99782.41
2022-12-23T12:55:59.272Z,99781.75
2022-12-23T12:59:01.593Z,99781.25
2022-12-23T13:02:39.548Z,99781.50
2022-12-23T13:06:16.111Z,99788.41
2022-12-23T13:09:56.607Z,99785.84
2022-12-23T13:13:14.025Z,99794.87
2022-12-23T13:16:41.035Z,99791.62
2022-12-23T13:20:16.310Z,99784.62
2022-12-23T13:23:45.567Z,99787.31
2022-12-23T13:27:18.513Z,99791.09
2022-12-23T13:30:23.875Z,99790.00
2022-12-23T13:33:36.991Z,99783.53
2022-12-23T13:36:52.434Z,99788.91
2022-12-23T13:40:39.941Z,99786.44
2022-12-23T13:43:47.601Z,99797.47
2022-12-23T13:47:14.171Z,99796.88
2022-12-23T13:50:40.765Z,99791.25
2022-12-23T13:53:58.031Z,99790.41
2022-12-23T13:57:44.513Z,99788.78
2022-12-23T14:00:47.079Z,99784.47
2022-12-23T14:03:50.814Z,99780.72
2022-12-23T14:06:58.938Z,99781.75
2022-12-23T14:10:19.595Z,99784.47
2022-12-23T14:18:15.135Z,99804.72
2022-12-23T14:21:36.577Z,99794.31
2022-12-23T14:25:07.064Z,99799.16
2022-12-23T14:28:39.331Z,99798.34
2022-12-23T14:31:47.838Z,99797.75
2022-12-23T14:35:24.401Z,99796.50
2022-12-23T14:38:29.904Z,99798.34
2022-12-23T14:41:41.441Z,99805.84
2022-12-23T14:44:46.979Z,99809.03
2022-12-23T14:47:49.313Z,99806.88
2022-12-23T14:50:59.281Z,99806.56
2022-12-23T14:54:02.008Z,99800.19
2022-12-23T14:57:17.421Z,99800.47
2022-12-23T15:00:20.028Z,99802.31
2022-12-23T15:03:22.734Z,99804.19
2022-12-23T15:06:35.196Z,99809.25
2022-12-23T15:09:47.913Z,99813.31
2022-12-23T15:12:55.321Z,99821.28
2022-12-23T15:16:02.732Z,99830.94
2022-12-23T15:19:18.946Z,99838.91
2022-12-23T15:22:30.368Z,99831.19
2022-12-23T15:25:40.091Z,99836.59
2022-12-23T15:28:44.124Z,99845.94
2022-12-23T15:31:52.944Z,99845.62
2022-12-23T15:35:05.029Z,99834.13
2022-12-23T15:38:07.490Z,99844.00
2022-12-23T15:41:18.742Z,99832.22
2022-12-23T15:44:25.434Z,99833.53
2022-12-23T15:47:30.045Z,99834.13
2022-12-23T15:50:42.276Z,99833.03
2022-12-23T15:53:51.385Z,99813.25
2022-12-23T15:56:56.442Z,99795.59
2022-12-23T16:00:02.078Z,99809.25
2022-12-23T16:03:26.150Z,99829.88
2022-12-23T16:06:35.480Z,99817.00
2022-12-23T16:09:38.101Z,99820.78
2022-12-23T16:12:43.226Z,99827.47
2022-12-23T16:15:46.091Z,99833.06
2022-12-23T16:18:48.838Z,99829.00
2022-12-23T16:21:51.680Z,99823.69
2022-12-23T16:25:06.642Z,99823.91
2022-12-23T16:28:14.865Z,99825.75
2022-12-23T16:31:20.230Z,99824.84
2022-12-23T16:34:22.924Z,99813.16
2022-12-23T16:37:26.103Z,99830.88
2022-12-23T16:40:28.626Z,99821.78
2022-12-23T16:43:31.700Z,99832.22
2022-12-23T16:46:37.845Z,99815.12
2022-12-23T16:49:40.918Z,99813.25
2022-12-23T16:52:43.281Z,99824.97
2022-12-23T16:55:52.516Z,99815.50
2022-12-23T16:58:59.333Z,99810.91
2022-12-23T17:02:03.953Z,99810.66
2022-12-23T17:05:07.942Z,99803.50
2022-12-23T17:08:11.902Z,99809.63
2022-12-23T17:11:19.886Z,99811.75
2022-12-23T17:14:25.178Z,99806.22
2022-12-23T17:17:27.757Z,99812.88
2022-12-23T17:20:31.209Z,99809.94
2022-12-23T17:23:33.481Z,99801.38
2022-12-23T17:26:36.243Z,99796.31
2022-12-23T17:29:39.260Z,99796.03
2022-12-23T17:32:42.295Z,99798.91
2022-12-23T17:35:46.752Z,99801.91
2022-12-23T17:38:49.867Z,99813.66
2022-12-23T17:41:52.336Z,99803.97
2022-12-23T17:44:55.495Z,99810.16
2022-12-23T17:47:57.897Z,99804.63
2022-12-23T17:51:01.148Z,99814.44
2022-12-23T17:54:04.638Z,99807.25
2022-12-23T17:57:21.015Z,99805.72
2022-12-23T18:00:31.659Z,99804.63
2022-12-23T18:03:36.930Z,99801.91
2022-12-23T18:06:39.478Z,99804.63
2022-12-23T18:09:45.961Z,99803.75
2022-12-23T18:12:52.206Z,99799.22
2022-12-23T18:15:55.419Z,99786.19
2022-12-23T18:18:58.414Z,99782.69
2022-12-23T18:22:02.174Z,99793.13
2022-12-23T18:25:04.945Z,99783.22
2022-12-23T18:28:09.506Z,99791.53
2022-12-23T18:31:18.405Z,99800.91
2022-12-23T18:34:21.762Z,99788.09
2022-12-23T18:37:24.699Z,99802.53
2022-12-23T18:40:32.689Z,99808.91
2022-12-23T18:43:35.611Z,99797.69
2022-12-23T18:46:38.529Z,99795.25
2022-12-23T18:49:41.584Z,99805.19
2022-12-23T18:52:46.681Z,99800.44
2022-12-23T18:55:49.395Z,99793.19
2022-12-23T18:58:52.475Z,99803.06
2022-12-23T19:01:56.300Z,99805.78
2022-12-23T19:04:59.210Z,99800.44
2022-12-23T19:08:01.577Z,99815.38
2022-12-23T19:11:12.944Z,99811.31
2022-12-23T19:14:15.405Z,99818.31
2022-12-23T19:17:18.440Z,99818.59
2022-12-23T19:20:22.052Z,99818.87
2022-12-23T19:23:26.397Z,99814.28
2022-12-23T19:26:28.944Z,99834.66
2022-12-23T19:29:32.139Z,99840.50
2022-12-23T19:32:34.995Z,99842.16
2022-12-23T19:35:42.140Z,99834.41
2022-12-23T19:38:45.601Z,99838.19
2022-12-23T19:41:48.463Z,99832.81
2022-12-23T19:44:50.938Z,99843.22
2022-12-23T19:47:53.756Z,99849.13
2022-12-23T19:51:15.267Z,99842.44
2022-12-23T19:54:19.421Z,99847.00
2022-12-23T19:57:23.253Z,99845.06
2022-12-23T20:00:30.946Z,99849.59
2022-12-23T20:03:33.825Z,99850.50
2022-12-23T20:06:39.917Z,99852.59
2022-12-23T20:09:42.522Z,99865.19
2022-12-23T20:12:44.788Z,99864.72
2022-12-23T20:15:47.381Z,99867.69
2022-12-23T20:18:49.783Z,99866.06
2022-12-23T20:21:52.625Z,99851.66
2022-12-23T20:24:55.181Z,99854.53
2022-12-23T20:27:58.095Z,99855.06
2022-12-23T20:31:07.506Z,99842.50
2022-12-23T20:34:15.119Z,99832.16
2022-12-23T20:37:17.659Z,99822.53
2022-12-23T20:40:20.989Z,99823.34
2022-12-23T20:43:23.805Z,99818.25
2022-12-23T20:46:28.029Z,99815.56
2022-12-23T20:49:31.243Z,99817.13
2022-12-23T20:52:34.109Z,99797.03
2022-12-23T20:55:36.775Z,99806.97
2022-12-23T20:58:56.037Z,99802.69
2022-12-23T21:02:03.142Z,99794.66
2022-12-23T21:05:06.120Z,99793.81
2022-12-23T21:08:08.689Z,99797.00
2022-12-23T21:11:12.154Z,99799.69
2022-12-23T21:14:15.409Z,99795.91
2022-12-23T21:17:18.457Z,99793.16
2022-12-23T21:20:20.741Z,99805.75
2022-12-23T21:23:23.347Z,99818.56
2022-12-23T21:26:28.626Z,99806.56
2022-12-23T21:29:31.249Z,99792.91
2022-12-23T21:32:33.860Z,99779.53
2022-12-23T21:35:36.725Z,99784.62
2022-12-23T21:38:41.553Z,99778.97
2022-12-23T21:41:44.319Z,99780.09
2022-12-23T21:44:47.282Z,99781.13
2022-12-23T21:47:49.912Z,99783.06
2022-12-23T21:50:52.215Z,99775.84
2022-12-23T21:53:57.185Z,99759.72
2022-12-23T21:56:59.588Z,99759.63
2022-12-23T22:00:02.830Z,99764.75
2022-12-23T22:03:06.678Z,99757.00
2022-12-23T22:06:12.117Z,99777.66
2022-12-23T22:09:19.273Z,99765.81
2022-12-23T22:12:21.826Z,99741.91
2022-12-23T22:15:24.086Z,99741.59
2022-12-23T22:18:26.650Z,99731.97
2022-12-23T22:21:31.161Z,99716.50
2022-12-23T22:24:33.778Z,99706.66
2022-12-23T22:27:36.011Z,99695.87
2022-12-23T22:30:38.593Z,99689.97
2022-12-23T22:33:41.070Z,99684.09
2022-12-23T22:36:43.827Z,99699.62
2022-12-23T22:39:46.512Z,99685.16
2022-12-23T22:42:49.127Z,99681.19
2022-12-23T22:45:58.887Z,99689.06
2022-12-23T22:49:01.749Z,99681.63
2022-12-23T22:52:04.806Z,99683.28
2022-12-23T22:55:07.828Z,99685.38
2022-12-23T22:58:10.045Z,99678.44
2022-12-23T23:01:26.638Z,99668.59
2022-12-23T23:04:29.233Z,99672.94
2022-12-23T23:07:31.809Z,99672.34
2022-12-23T23:10:34.304Z,99671.03
2022-12-23T23:13:36.818Z,99673.94
2022-12-23T23:16:39.240Z,99676.84
2022-12-23T23:19:41.823Z,99681.97
2022-12-23T23:22:44.492Z,99686.09
2022-12-23T23:25:47.141Z,99677.53
2022-12-23T23:28:49.419Z,99668.91
2022-12-23T23:31:51.963Z,99683.84
2022-12-23T23:34:54.254Z,99691.31
2022-12-23T23:37:56.797Z,99682.53
2022-12-23T23:40:59.013Z,99681.47
2022-12-23T23:44:01.527Z,99673.59
2022-12-23T23:47:03.816Z,99663.13
2022-12-23T23:50:07.411Z,99651.63
2022-12-23T23:53:11.503Z,99639.84
2022-12-23T23:56:16.363Z,99640.13
2022-12-23T23:59:20.298Z,99643.75
